createdAt,value
2022-11-05T00:00:30.004Z,70.24
2022-11-05T00:03:03.912Z,70.19
2022-11-05T00:05:37.060Z,70.14
2022-11-05T00:08:11.929Z,70.37
2022-11-05T00:21:22.929Z,70.51
2022-11-05T00:23:56.097Z,70.44
2022-11-05T00:26:22.628Z,70.28
2022-11-05T00:29:02.940Z,70.48
2022-11-05T00:31:36.077Z,70.44
2022-11-05T00:34:02.733Z,70.60
2022-11-05T00:36:43.933Z,70.63
2022-11-05T00:47:13.876Z,70.52
2022-11-05T00:49:53.911Z,70.71
2022-11-05T00:52:28.912Z,70.80
2022-11-05T00:55:03.532Z,70.59
2022-11-05T00:57:36.939Z,70.75
2022-11-05T01:00:11.959Z,70.62
2022-11-05T01:02:45.349Z,70.70
2022-11-05T01:15:34.887Z,70.87
2022-11-05T01:18:15.507Z,70.91
2022-11-05T01:20:49.766Z,70.78
2022-11-05T01:23:22.908Z,70.67
2022-11-05T01:25:58.256Z,70.73
2022-11-05T01:28:30.985Z,70.66
2022-11-05T01:41:41.932Z,70.47
2022-11-05T01:44:53.405Z,70.69
2022-11-05T01:47:48.936Z,70.61
2022-11-05T01:50:39.849Z,70.59
2022-11-05T01:53:28.910Z,70.67
2022-11-05T01:56:07.925Z,70.87
2022-11-05T02:09:05.877Z,70.63
2022-11-05T02:11:45.912Z,70.50
2022-11-05T02:14:21.467Z,70.55
2022-11-05T02:17:02.903Z,70.36
2022-11-05T02:20:09.152Z,70.37
2022-11-05T02:23:46.725Z,70.52
2022-11-05T02:36:34.912Z,70.39
2022-11-05T02:39:27.213Z,70.58
2022-11-05T02:42:18.904Z,70.54
2022-11-05T02:45:06.705Z,70.71
2022-11-05T02:47:51.933Z,70.58
2022-11-05T03:01:07.021Z,70.54
2022-11-05T03:03:45.973Z,70.52
2022-11-05T03:07:01.922Z,70.51
2022-11-05T03:10:06.893Z,70.65
2022-11-05T03:13:01.932Z,70.62
2022-11-05T03:15:53.914Z,70.69
2022-11-05T03:28:25.863Z,70.69
2022-11-05T03:31:07.932Z,70.67
2022-11-05T03:33:46.203Z,70.66
2022-11-05T03:36:39.905Z,70.78
2022-11-05T03:39:23.892Z,70.81
2022-11-05T03:42:06.910Z,70.91
2022-11-05T03:55:18.892Z,71.01
2022-11-05T03:57:57.873Z,71.09
2022-11-05T04:00:37.889Z,70.95
2022-11-05T04:03:11.315Z,70.98
2022-11-05T04:06:14.034Z,70.88
2022-11-05T04:08:47.080Z,70.95
2022-11-05T04:21:35.856Z,71.15
2022-11-05T04:24:15.916Z,71.15
2022-11-05T04:26:48.924Z,71.40
2022-11-05T04:29:15.469Z,71.34
2022-11-05T04:31:58.147Z,71.31
2022-11-05T04:34:31.039Z,71.31
2022-11-05T04:37:05.913Z,71.13
2022-11-05T04:50:14.908Z,71.26
2022-11-05T04:52:50.249Z,71.32
2022-11-05T04:55:23.863Z,71.30
2022-11-05T04:57:57.067Z,71.23
2022-11-05T05:00:30.936Z,71.36
2022-11-05T05:03:03.991Z,71.29
2022-11-05T05:15:52.863Z,71.41
2022-11-05T05:18:32.886Z,71.34
2022-11-05T05:21:06.107Z,71.43
2022-11-05T05:23:32.656Z,71.38
2022-11-05T05:26:12.896Z,71.35
2022-11-05T05:28:45.916Z,71.36
2022-11-05T05:41:34.840Z,71.30
2022-11-05T05:44:14.882Z,71.31
2022-11-05T05:46:48.006Z,71.36
2022-11-05T05:49:14.691Z,71.40
2022-11-05T05:51:54.893Z,71.39
2022-11-05T05:54:32.334Z,71.15
2022-11-05T05:57:15.899Z,71.33
2022-11-05T06:10:24.930Z,71.27
2022-11-05T06:13:01.215Z,71.36
2022-11-05T06:15:36.229Z,71.46
2022-11-05T06:18:08.957Z,71.31
2022-11-05T06:20:41.872Z,71.05
2022-11-05T06:23:15.061Z,71.39
2022-11-05T06:36:07.850Z,71.42
2022-11-05T06:38:47.888Z,71.39
2022-11-05T06:41:20.930Z,71.42
2022-11-05T06:43:47.580Z,71.38
2022-11-05T06:46:27.854Z,71.57
2022-11-05T07:03:10.040Z,71.31
2022-11-05T07:05:54.885Z,71.25
2022-11-05T07:08:31.211Z,71.37
2022-11-05T07:11:03.856Z,71.12
2022-11-05T07:13:37.117Z,71.29
2022-11-05T07:16:10.868Z,71.20
2022-11-05T07:18:45.837Z,71.09
2022-11-05T07:28:31.879Z,71.05
2022-11-05T07:31:05.416Z,71.02
2022-11-05T07:33:39.595Z,71.03
2022-11-05T07:36:14.878Z,71.01
2022-11-05T07:38:47.868Z,70.90
2022-11-05T07:41:20.909Z,71.05
2022-11-05T07:43:47.482Z,71.07
2022-11-05T07:56:44.859Z,70.97
2022-11-05T07:59:24.897Z,71.04
2022-11-05T08:01:58.123Z,71.11
2022-11-05T08:04:31.843Z,70.96
2022-11-05T08:07:04.940Z,71.01
2022-11-05T08:23:19.839Z,70.85
2022-11-05T08:25:53.046Z,70.94
2022-11-05T08:28:26.870Z,70.88
2022-11-05T08:30:59.948Z,70.81
2022-11-05T08:33:26.797Z,70.72
2022-11-05T08:36:09.902Z,70.92
2022-11-05T08:38:44.944Z,71.03
2022-11-05T08:48:45.929Z,70.81
2022-11-05T08:51:19.009Z,70.80
2022-11-05T08:53:53.843Z,70.77
2022-11-05T08:56:26.969Z,70.62
2022-11-05T08:58:53.589Z,70.85
2022-11-05T09:01:34.011Z,70.71
2022-11-05T09:15:28.868Z,70.73
2022-11-05T09:18:05.059Z,70.82
2022-11-05T09:20:38.864Z,70.50
2022-11-05T09:23:13.681Z,70.58
2022-11-05T09:25:46.841Z,70.64
2022-11-05T09:28:20.893Z,70.34
2022-11-05T09:44:46.862Z,69.79
2022-11-05T09:47:25.579Z,70.01
2022-11-05T09:50:11.889Z,70.00
2022-11-05T09:52:45.457Z,69.86
2022-11-05T09:55:29.858Z,69.77
2022-11-05T09:58:14.268Z,69.90
2022-11-05T10:11:21.821Z,69.96
2022-11-05T10:14:06.845Z,70.04
2022-11-05T10:16:47.710Z,70.20
2022-11-05T10:19:32.861Z,69.95
2022-11-05T10:22:11.955Z,69.80
2022-11-05T10:35:49.826Z,68.57
2022-11-05T10:38:30.547Z,68.00
2022-11-05T10:41:28.757Z,68.00
2022-11-05T10:44:25.844Z,68.12
2022-11-05T10:47:23.861Z,68.01
2022-11-05T11:03:52.862Z,66.79
2022-11-05T11:06:30.110Z,66.73
2022-11-05T11:09:23.836Z,66.45
2022-11-05T11:12:05.776Z,66.27
2022-11-05T11:14:45.849Z,66.36
2022-11-05T11:17:28.126Z,66.66
2022-11-05T11:30:26.814Z,64.59
2022-11-05T11:33:13.240Z,64.71
2022-11-05T11:35:47.326Z,64.50
2022-11-05T11:38:22.852Z,64.50
2022-11-05T11:41:05.471Z,64.45
2022-11-05T11:43:48.881Z,63.62
2022-11-05T11:56:59.847Z,63.78
2022-11-05T12:00:02.427Z,63.90
2022-11-05T12:03:08.910Z,63.50
2022-11-05T12:05:48.111Z,63.37
2022-11-05T12:08:52.348Z,62.90
2022-11-05T12:11:42.511Z,62.63
2022-11-05T12:25:11.796Z,63.13
2022-11-05T12:28:27.843Z,62.51
2022-11-05T12:31:21.128Z,62.63
2022-11-05T12:37:29.843Z,62.44
2022-11-05T12:50:50.819Z,62.10
2022-11-05T12:53:40.959Z,62.19
2022-11-05T12:56:30.887Z,62.12
2022-11-05T12:59:15.856Z,62.28
2022-11-05T13:02:01.923Z,62.41
2022-11-05T13:17:55.822Z,63.07
2022-11-05T13:20:42.836Z,62.91
2022-11-05T13:23:25.680Z,62.70
2022-11-05T13:26:19.349Z,62.53
2022-11-05T13:29:02.252Z,62.05
2022-11-05T13:31:46.851Z,62.24
2022-11-05T13:45:31.912Z,63.67
2022-11-05T13:48:48.729Z,63.96
2022-11-05T13:51:53.834Z,64.31
2022-11-05T13:55:02.137Z,64.05
2022-11-05T13:58:03.841Z,63.52
2022-11-05T14:11:29.850Z,63.96
2022-11-05T14:14:08.335Z,63.64
2022-11-05T14:16:57.847Z,63.63
2022-11-05T14:19:49.467Z,63.58
2022-11-05T14:22:45.841Z,63.46
2022-11-05T14:36:37.841Z,62.30
2022-11-05T14:39:30.243Z,62.66
2022-11-05T14:42:20.869Z,62.86
2022-11-05T14:45:20.354Z,63.08
2022-11-05T14:48:04.901Z,63.37
2022-11-05T14:50:41.416Z,63.68
2022-11-05T14:53:39.813Z,63.85
2022-11-05T15:04:21.903Z,64.58
2022-11-05T15:07:35.825Z,64.72
2022-11-05T15:10:16.823Z,64.79
2022-11-05T15:13:01.853Z,65.02
2022-11-05T15:15:43.936Z,65.26
2022-11-05T15:18:32.837Z,65.36
2022-11-05T15:31:45.817Z,65.67
2022-11-05T15:34:23.554Z,65.70
2022-11-05T15:37:05.829Z,65.83
2022-11-05T15:39:41.681Z,66.09
2022-11-05T15:42:20.821Z,65.77
2022-11-05T15:59:04.783Z,65.82
2022-11-05T16:01:58.027Z,65.45
2022-11-05T16:04:33.813Z,65.37
2022-11-05T16:07:14.819Z,65.48
2022-11-05T16:09:56.296Z,65.18
2022-11-05T16:12:39.812Z,65.41
2022-11-05T16:25:57.795Z,64.77
2022-11-05T16:28:30.905Z,64.35
2022-11-05T16:31:07.800Z,63.35
2022-11-05T16:33:45.404Z,63.75
2022-11-05T16:36:25.811Z,63.99
2022-11-05T16:38:59.276Z,63.87
2022-11-05T16:51:49.775Z,63.95
2022-11-05T16:54:41.061Z,63.78
2022-11-05T16:57:27.121Z,63.85
2022-11-05T17:00:06.835Z,63.56
2022-11-05T17:02:40.083Z,63.69
2022-11-05T17:18:55.835Z,62.84
2022-11-05T17:21:31.665Z,62.72
2022-11-05T17:24:04.808Z,62.69
2022-11-05T17:26:37.955Z,62.67
2022-11-05T17:29:04.663Z,62.57
2022-11-05T17:31:45.880Z,63.01
2022-11-05T17:44:56.821Z,62.84
2022-11-05T17:47:29.928Z,62.78
2022-11-05T17:49:56.496Z,63.06
2022-11-05T17:52:36.803Z,63.01
2022-11-05T17:55:11.344Z,62.94
2022-11-05T17:57:45.578Z,62.82
2022-11-05T18:10:59.813Z,62.79
2022-11-05T18:13:32.909Z,62.80
2022-11-05T18:15:59.452Z,62.85
2022-11-05T18:18:39.804Z,62.93
2022-11-05T18:21:12.876Z,63.21
2022-11-05T18:23:39.412Z,62.76
2022-11-05T18:37:21.785Z,63.07
2022-11-05T18:40:01.836Z,63.16
2022-11-05T18:42:35.419Z,63.08
2022-11-05T18:45:08.843Z,63.08
2022-11-05T18:47:41.904Z,62.85
2022-11-05T18:50:15.808Z,62.89
2022-11-05T18:52:50.844Z,62.73
2022-11-05T19:05:38.783Z,62.44
2022-11-05T19:08:20.785Z,62.47
2022-11-05T19:10:53.853Z,62.54
2022-11-05T19:13:20.427Z,62.86
2022-11-05T19:16:00.844Z,63.17
2022-11-05T19:18:34.257Z,62.91
2022-11-05T19:31:27.800Z,63.08
2022-11-05T19:34:08.221Z,63.07
2022-11-05T19:36:42.763Z,63.29
2022-11-05T19:39:19.803Z,63.26
2022-11-05T19:41:53.090Z,63.80
2022-11-05T19:57:58.784Z,63.94
2022-11-05T20:00:31.945Z,63.63
2022-11-05T20:03:06.608Z,63.74
2022-11-05T20:05:40.008Z,63.67
2022-11-05T20:08:13.075Z,63.55
2022-11-05T20:10:46.871Z,63.47
2022-11-05T20:13:21.777Z,63.75
2022-11-05T20:26:31.830Z,63.96
2022-11-05T20:29:06.954Z,63.87
2022-11-05T20:31:40.810Z,63.69
2022-11-05T20:34:14.009Z,63.47
2022-11-05T20:36:40.736Z,63.50
2022-11-05T20:52:16.783Z,63.44
2022-11-05T20:54:49.915Z,63.57
2022-11-05T20:57:16.466Z,63.31
2022-11-05T20:59:56.811Z,63.32
2022-11-05T21:02:30.034Z,63.71
2022-11-05T21:18:45.777Z,63.62
2022-11-05T21:21:20.248Z,63.99
2022-11-05T21:23:53.775Z,64.13
2022-11-05T21:26:27.041Z,63.87
2022-11-05T21:28:53.672Z,63.98
2022-11-05T21:31:33.789Z,64.07
2022-11-05T21:34:09.159Z,63.79
2022-11-05T21:46:57.754Z,63.80
2022-11-05T21:49:40.772Z,63.58
2022-11-05T21:52:13.880Z,63.76
2022-11-05T21:54:40.422Z,63.74
2022-11-05T21:57:21.815Z,63.57
2022-11-05T22:11:17.859Z,63.82
2022-11-05T22:13:53.430Z,63.55
2022-11-05T22:16:26.760Z,63.96
2022-11-05T22:18:59.971Z,63.56
2022-11-05T22:21:26.611Z,63.32
2022-11-05T22:24:06.758Z,63.39
2022-11-05T22:26:41.672Z,63.32
2022-11-05T22:29:17.779Z,63.15
2022-11-05T22:39:09.752Z,63.49
2022-11-05T22:41:49.801Z,63.35
2022-11-05T22:44:26.586Z,63.29
2022-11-05T22:47:06.780Z,63.52
2022-11-05T22:49:40.193Z,63.56
2022-11-05T22:52:06.734Z,63.35
2022-11-05T23:05:02.752Z,63.50
2022-11-05T23:07:43.781Z,63.28
2022-11-05T23:10:17.184Z,63.09
2022-11-05T23:12:50.940Z,63.16
2022-11-05T23:15:23.804Z,63.21
2022-11-05T23:17:50.335Z,63.19
2022-11-05T23:31:30.837Z,63.40
2022-11-05T23:34:11.755Z,63.51
2022-11-05T23:36:44.804Z,63.28
2022-11-05T23:39:11.352Z,63.58
2022-11-05T23:41:51.854Z,63.33
2022-11-05T23:44:24.969Z,63.14
2022-11-05T23:46:51.596Z,62.99
2022-11-05T23:58:49.792Z,63.41
